Terminal Aerodrome Forecast
Issued by NWS Blacksburg, VA

Home | Current Version | Previous Version | Text Only | Print | Product List | Glossary On
Versions: 1 2 3 4 5 6 7 8 9 10 11 12 13 14 15 16 17 18 19 20 21 22 23 24 25 26 27 28 29 30 31 32 33 34 35 36 37 38 39 40 41 42 43
000
FTUS41 KRNK 201140
TAFBLF
TAF
KBLF 201140Z 2012/2112 21004KT P6SM SCT025 BKN100
     FM201300 24006KT 3SM TSRA BKN025CB OVC100
     FM201500 27003KT 5SM -RA BR OVC010
     FM201700 28008KT P6SM SCT040 BKN070
     FM202200 26004KT P6SM SCT050 BKN200
     FM210600 25003KT 4SM BR SCT004=

USA.gov is the U.S. government's official web portal to all federal, state and local government web resources and services.